sensor_id;sensor_type;location;lat;lon;timestamp;pressure;altitude;pressure_sealevel;temperature;humidity
35910;BME280;22004;49.120;-0.200;2023-06-24T00:00:56;102407.72;;;18.04;76.01
35910;BME280;22004;49.120;-0.200;2023-06-24T00:03:22;102412.50;;;18.02;76.54
35910;BME280;22004;49.120;-0.200;2023-06-24T00:05:47;102418.31;;;17.99;76.37
35910;BME280;22004;49.120;-0.200;2023-06-24T00:08:18;102408.50;;;17.83;76.79
35910;BME280;22004;49.120;-0.200;2023-06-24T00:10:47;102409.78;;;18.02;75.85
35910;BME280;22004;49.120;-0.200;2023-06-24T00:13:16;102415.44;;;18.01;76.13
35910;BME280;22004;49.120;-0.200;2023-06-24T00:15:41;102406.16;;;17.80;76.37
35910;BME280;22004;49.120;-0.200;2023-06-24T00:18:09;102407.16;;;17.94;76.38
35910;BME280;22004;49.120;-0.200;2023-06-24T00:20:34;102402.69;;;17.87;76.34
35910;BME280;22004;49.120;-0.200;2023-06-24T00:23:00;102403.16;;;17.90;76.60
35910;BME280;22004;49.120;-0.200;2023-06-24T00:25:25;102399.97;;;17.87;76.38
35910;BME280;22004;49.120;-0.200;2023-06-24T00:27:51;102413.00;;;17.91;76.33
35910;BME280;22004;49.120;-0.200;2023-06-24T00:30:16;102396.78;;;17.83;76.18
35910;BME280;22004;49.120;-0.200;2023-06-24T00:32:41;102397.75;;;17.90;76.16
35910;BME280;22004;49.120;-0.200;2023-06-24T00:35:07;102404.56;;;17.86;76.47
35910;BME280;22004;49.120;-0.200;2023-06-24T00:37:32;102400.81;;;17.87;76.27
35910;BME280;22004;49.120;-0.200;2023-06-24T00:39:58;102392.88;;;17.86;76.17
35910;BME280;22004;49.120;-0.200;2023-06-24T00:42:23;102400.47;;;17.90;76.01
35910;BME280;22004;49.120;-0.200;2023-06-24T00:44:49;102398.09;;;17.87;76.19
35910;BME280;22004;49.120;-0.200;2023-06-24T00:47:14;102388.16;;;17.79;75.99
35910;BME280;22004;49.120;-0.200;2023-06-24T00:49:40;102394.91;;;17.83;76.18
35910;BME280;22004;49.120;-0.200;2023-06-24T00:52:11;102391.63;;;17.73;75.90
35910;BME280;22004;49.120;-0.200;2023-06-24T00:54:41;102388.16;;;17.79;76.39
35910;BME280;22004;49.120;-0.200;2023-06-24T00:57:06;102390.88;;;17.79;76.10
35910;BME280;22004;49.120;-0.200;2023-06-24T00:59:32;102387.31;;;17.79;76.10
35910;BME280;22004;49.120;-0.200;2023-06-24T01:01:58;102391.28;;;17.76;76.23
35910;BME280;22004;49.120;-0.200;2023-06-24T01:04:27;102392.13;;;17.77;76.02
35910;BME280;22004;49.120;-0.200;2023-06-24T01:06:53;102383.38;;;17.67;76.19
35910;BME280;22004;49.120;-0.200;2023-06-24T01:09:18;102384.41;;;17.66;76.25
35910;BME280;22004;49.120;-0.200;2023-06-24T01:11:43;102398.16;;;17.64;76.12
35910;BME280;22004;49.120;-0.200;2023-06-24T01:14:09;102384.97;;;17.61;76.49
35910;BME280;22004;49.120;-0.200;2023-06-24T01:22:15;102372.88;;;17.64;76.14
35910;BME280;22004;49.120;-0.200;2023-06-24T01:25:05;102386.66;;;17.62;76.40
35910;BME280;22004;49.120;-0.200;2023-06-24T01:30:15;102382.69;;;17.65;75.82
35910;BME280;22004;49.120;-0.200;2023-06-24T01:32:54;102377.75;;;17.53;76.20
35910;BME280;22004;49.120;-0.200;2023-06-24T01:35:26;102383.94;;;17.62;76.00
35910;BME280;22004;49.120;-0.200;2023-06-24T01:37:54;102382.34;;;17.53;76.39
35910;BME280;22004;49.120;-0.200;2023-06-24T01:40:31;102377.09;;;17.51;76.02
35910;BME280;22004;49.120;-0.200;2023-06-24T01:43:00;102371.13;;;17.56;76.05
35910;BME280;22004;49.120;-0.200;2023-06-24T01:45:28;102370.28;;;17.55;76.10
35910;BME280;22004;49.120;-0.200;2023-06-24T01:48:02;102374.84;;;17.70;76.02
35910;BME280;22004;49.120;-0.200;2023-06-24T01:50:31;102370.34;;;17.47;75.93
35910;BME280;22004;49.120;-0.200;2023-06-24T01:52:57;102363.31;;;17.38;76.22
35910;BME280;22004;49.120;-0.200;2023-06-24T01:55:24;102367.63;;;17.47;76.12
35910;BME280;22004;49.120;-0.200;2023-06-24T01:57:52;102371.38;;;17.46;75.82
35910;BME280;22004;49.120;-0.200;2023-06-24T02:00:19;102360.69;;;17.45;76.27
35910;BME280;22004;49.120;-0.200;2023-06-24T02:02:46;102358.38;;;17.56;76.03
35910;BME280;22004;49.120;-0.200;2023-06-24T02:05:12;102357.63;;;17.48;75.97
35910;BME280;22004;49.120;-0.200;2023-06-24T02:07:39;102361.09;;;17.42;75.93
35910;BME280;22004;49.120;-0.200;2023-06-24T02:10:06;102357.13;;;17.44;76.66
35910;BME280;22004;49.120;-0.200;2023-06-24T02:12:32;102352.28;;;17.40;76.13
35910;BME280;22004;49.120;-0.200;2023-06-24T02:14:59;102352.47;;;17.38;76.07
35910;BME280;22004;49.120;-0.200;2023-06-24T02:17:25;102349.09;;;17.36;76.32
35910;BME280;22004;49.120;-0.200;2023-06-24T02:19:55;102357.34;;;17.43;76.55
35910;BME280;22004;49.120;-0.200;2023-06-24T02:22:22;102342.91;;;17.42;75.93
35910;BME280;22004;49.120;-0.200;2023-06-24T02:24:48;102343.47;;;17.38;76.31
35910;BME280;22004;49.120;-0.200;2023-06-24T02:27:15;102337.28;;;17.29;76.20
35910;BME280;22004;49.120;-0.200;2023-06-24T02:29:41;102338.69;;;17.40;76.03
35910;BME280;22004;49.120;-0.200;2023-06-24T02:32:08;102346.19;;;17.38;76.00
35910;BME280;22004;49.120;-0.200;2023-06-24T02:34:34;102352.66;;;17.37;75.90
35910;BME280;22004;49.120;-0.200;2023-06-24T02:36:59;102346.56;;;17.35;76.24
35910;BME280;22004;49.120;-0.200;2023-06-24T02:39:25;102351.63;;;17.38;76.22
35910;BME280;22004;49.120;-0.200;2023-06-24T02:41:50;102353.03;;;17.34;76.18
35910;BME280;22004;49.120;-0.200;2023-06-24T02:44:16;102349.28;;;17.35;75.95
35910;BME280;22004;49.120;-0.200;2023-06-24T02:46:43;102354.53;;;17.36;76.20
35910;BME280;22004;49.120;-0.200;2023-06-24T02:49:13;102350.22;;;17.27;76.44
35910;BME280;22004;49.120;-0.200;2023-06-24T02:51:41;102344.94;;;17.25;75.98
35910;BME280;22004;49.120;-0.200;2023-06-24T02:54:06;102359.41;;;17.26;76.14
35910;BME280;22004;49.120;-0.200;2023-06-24T02:56:35;102360.78;;;17.22;76.48
35910;BME280;22004;49.120;-0.200;2023-06-24T02:59:07;102352.16;;;17.18;76.50
35910;BME280;22004;49.120;-0.200;2023-06-24T03:01:34;102356.56;;;17.19;76.08
35910;BME280;22004;49.120;-0.200;2023-06-24T03:04:03;102352.16;;;17.18;76.42
35910;BME280;22004;49.120;-0.200;2023-06-24T03:06:29;102334.84;;;17.19;76.27
35910;BME280;22004;49.120;-0.200;2023-06-24T03:08:55;102340.94;;;17.21;76.52
35910;BME280;22004;49.120;-0.200;2023-06-24T03:11:20;102345.41;;;17.14;76.17
35910;BME280;22004;49.120;-0.200;2023-06-24T03:13:46;102335.88;;;17.18;76.45
35910;BME280;22004;49.120;-0.200;2023-06-24T03:16:11;102338.22;;;17.21;76.33
35910;BME280;22004;49.120;-0.200;2023-06-24T03:18:41;102340.28;;;17.19;76.18
35910;BME280;22004;49.120;-0.200;2023-06-24T03:21:07;102347.69;;;17.11;76.06
35910;BME280;22004;49.120;-0.200;2023-06-24T03:23:32;102340.47;;;17.18;76.17
35910;BME280;22004;49.120;-0.200;2023-06-24T03:25:57;102338.78;;;17.17;76.22
35910;BME280;22004;49.120;-0.200;2023-06-24T03:28:23;102326.69;;;17.19;76.22
35910;BME280;22004;49.120;-0.200;2023-06-24T03:30:48;102329.97;;;17.15;76.09
35910;BME280;22004;49.120;-0.200;2023-06-24T03:33:14;102331.94;;;17.06;75.75
35910;BME280;22004;49.120;-0.200;2023-06-24T03:35:44;102334.94;;;17.11;76.27
35910;BME280;22004;49.120;-0.200;2023-06-24T03:38:09;102339.69;;;17.09;76.03
35910;BME280;22004;49.120;-0.200;2023-06-24T03:40:35;102349.16;;;17.13;76.40
35910;BME280;22004;49.120;-0.200;2023-06-24T03:43:01;102351.78;;;17.07;75.98
35910;BME280;22004;49.120;-0.200;2023-06-24T03:45:26;102350.06;;;17.05;76.17
35910;BME280;22004;49.120;-0.200;2023-06-24T03:47:52;102345.22;;;17.01;76.34
35910;BME280;22004;49.120;-0.200;2023-06-24T03:50:17;102358.69;;;17.09;76.06
35910;BME280;22004;49.120;-0.200;2023-06-24T03:52:42;102362.91;;;17.12;76.29
35910;BME280;22004;49.120;-0.200;2023-06-24T03:55:09;102348.59;;;17.03;76.45
35910;BME280;22004;49.120;-0.200;2023-06-24T03:57:36;102347.00;;;17.09;76.23
35910;BME280;22004;49.120;-0.200;2023-06-24T04:00:01;102353.81;;;17.04;76.14
35910;BME280;22004;49.120;-0.200;2023-06-24T04:02:31;102354.66;;;17.05;76.28
35910;BME280;22004;49.120;-0.200;2023-06-24T04:04:56;102349.13;;;16.98;76.22
35910;BME280;22004;49.120;-0.200;2023-06-24T04:07:22;102350.34;;;16.96;76.30
35910;BME280;22004;49.120;-0.200;2023-06-24T04:09:54;102345.50;;;17.06;75.93
35910;BME280;22004;49.120;-0.200;2023-06-24T04:12:20;102351.41;;;17.10;76.01
35910;BME280;22004;49.120;-0.200;2023-06-24T04:14:45;102351.09;;;17.04;75.96
35910;BME280;22004;49.120;-0.200;2023-06-24T04:17:10;102346.16;;;17.08;76.05
35910;BME280;22004;49.120;-0.200;2023-06-24T04:19:36;102348.59;;;17.03;76.25
35910;BME280;22004;49.120;-0.200;2023-06-24T04:22:01;102346.06;;;17.01;75.70
35910;BME280;22004;49.120;-0.200;2023-06-24T04:24:26;102354.66;;;17.05;76.18
35910;BME280;22004;49.120;-0.200;2023-06-24T04:26:52;102357.38;;;17.05;76.20
35910;BME280;22004;49.120;-0.200;2023-06-24T04:29:17;102365.63;;;17.12;76.32
35910;BME280;22004;49.120;-0.200;2023-06-24T04:31:42;102357.66;;;17.10;76.17
35910;BME280;22004;49.120;-0.200;2023-06-24T04:34:08;102354.63;;;16.67;74.52
35910;BME280;22004;49.120;-0.200;2023-06-24T04:36:33;102357.22;;;17.07;76.23
35910;BME280;22004;49.120;-0.200;2023-06-24T04:38:58;102346.66;;;17.12;75.67
35910;BME280;22004;49.120;-0.200;2023-06-24T04:41:24;102355.06;;;17.17;76.04
35910;BME280;22004;49.120;-0.200;2023-06-24T04:43:50;102351.69;;;17.15;75.95
35910;BME280;22004;49.120;-0.200;2023-06-24T04:46:16;102365.94;;;17.17;75.83
35910;BME280;22004;49.120;-0.200;2023-06-24T04:48:41;102349.09;;;17.21;75.61
35910;BME280;22004;49.120;-0.200;2023-06-24T04:51:06;102356.56;;;17.19;75.74
35910;BME280;22004;49.120;-0.200;2023-06-24T04:53:32;102354.50;;;17.21;75.54
35910;BME280;22004;49.120;-0.200;2023-06-24T04:55:57;102354.81;;;17.26;75.33
35910;BME280;22004;49.120;-0.200;2023-06-24T04:58:22;102354.59;;;17.28;75.76
35910;BME280;22004;49.120;-0.200;2023-06-24T05:00:48;102360.13;;;17.35;75.50
35910;BME280;22004;49.120;-0.200;2023-06-24T05:03:13;102365.25;;;17.15;76.11
35910;BME280;22004;49.120;-0.200;2023-06-24T05:05:39;102360.19;;;16.97;75.54
35910;BME280;22004;49.120;-0.200;2023-06-24T05:08:04;102351.72;;;16.69;77.41
35910;BME280;22004;49.120;-0.200;2023-06-24T05:10:29;102354.41;;;16.77;76.29
35910;BME280;22004;49.120;-0.200;2023-06-24T05:12:54;102337.88;;;15.87;77.17
35910;BME280;22004;49.120;-0.200;2023-06-24T05:15:20;102346.47;;;15.90;77.41
35910;BME280;22004;49.120;-0.200;2023-06-24T05:17:45;102363.63;;;16.91;77.39
35910;BME280;22004;49.120;-0.200;2023-06-24T05:20:11;102366.22;;;17.37;75.81
35910;BME280;22004;49.120;-0.200;2023-06-24T05:22:36;102361.94;;;17.42;75.56
35910;BME280;22004;49.120;-0.200;2023-06-24T05:25:02;102359.69;;;17.46;75.42
35910;BME280;22004;49.120;-0.200;2023-06-24T05:27:27;102357.97;;;17.30;76.27
35910;BME280;22004;49.120;-0.200;2023-06-24T05:29:53;102358.81;;;17.45;75.74
35910;BME280;22004;49.120;-0.200;2023-06-24T05:32:18;102362.00;;;17.64;74.88
35910;BME280;22004;49.120;-0.200;2023-06-24T05:34:45;102363.59;;;17.58;75.07
35910;BME280;22004;49.120;-0.200;2023-06-24T05:37:11;102364.91;;;17.47;75.38
35910;BME280;22004;49.120;-0.200;2023-06-24T05:39:36;102365.84;;;17.69;74.97
35910;BME280;22004;49.120;-0.200;2023-06-24T05:42:01;102364.94;;;17.62;75.21
35910;BME280;22004;49.120;-0.200;2023-06-24T05:44:27;102374.31;;;17.74;74.79
35910;BME280;22004;49.120;-0.200;2023-06-24T05:46:52;102371.41;;;17.61;74.81
35910;BME280;22004;49.120;-0.200;2023-06-24T05:49:17;102372.53;;;17.81;75.13
35910;BME280;22004;49.120;-0.200;2023-06-24T05:51:43;102367.75;;;17.83;74.79
35910;BME280;22004;49.120;-0.200;2023-06-24T05:54:08;102371.56;;;18.04;74.25
35910;BME280;22004;49.120;-0.200;2023-06-24T05:56:33;102374.22;;;18.19;73.86
35910;BME280;22004;49.120;-0.200;2023-06-24T05:58:59;102399.72;;;18.32;73.51
35910;BME280;22004;49.120;-0.200;2023-06-24T06:01:25;102391.81;;;19.51;69.43
35910;BME280;22004;49.120;-0.200;2023-06-24T06:03:50;102390.78;;;19.94;68.80
35910;BME280;22004;49.120;-0.200;2023-06-24T06:06:16;102388.78;;;21.10;65.07
35910;BME280;22004;49.120;-0.200;2023-06-24T06:08:41;102383.09;;;21.51;62.75
35910;BME280;22004;49.120;-0.200;2023-06-24T06:11:06;102390.03;;;21.47;63.68
35910;BME280;22004;49.120;-0.200;2023-06-24T06:13:32;102385.66;;;22.04;61.91
35910;BME280;22004;49.120;-0.200;2023-06-24T06:15:57;102389.69;;;21.95;62.99
35910;BME280;22004;49.120;-0.200;2023-06-24T06:18:23;102386.00;;;23.16;59.41
35910;BME280;22004;49.120;-0.200;2023-06-24T06:20:48;102385.44;;;22.06;62.57
35910;BME280;22004;49.120;-0.200;2023-06-24T06:23:15;102389.25;;;23.93;57.50
35910;BME280;22004;49.120;-0.200;2023-06-24T06:25:40;102388.03;;;24.67;55.07
35910;BME280;22004;49.120;-0.200;2023-06-24T06:28:06;102390.06;;;24.84;44.90
35910;BME280;22004;49.120;-0.200;2023-06-24T06:30:31;102378.53;;;25.64;52.19
35910;BME280;22004;49.120;-0.200;2023-06-24T06:32:56;102363.53;;;24.06;56.44
35910;BME280;22004;49.120;-0.200;2023-06-24T06:35:22;102368.53;;;25.22;53.94
35910;BME280;22004;49.120;-0.200;2023-06-24T06:37:47;102355.97;;;22.78;60.62
35910;BME280;22004;49.120;-0.200;2023-06-24T06:40:18;102361.19;;;24.39;56.44
35910;BME280;22004;49.120;-0.200;2023-06-24T06:42:43;102364.22;;;24.61;56.23
35910;BME280;22004;49.120;-0.200;2023-06-24T06:45:09;102357.63;;;24.20;56.47
35910;BME280;22004;49.120;-0.200;2023-06-24T06:47:34;102371.63;;;25.14;55.27
35910;BME280;22004;49.120;-0.200;2023-06-24T06:49:59;102360.69;;;24.72;56.19
35910;BME280;22004;49.120;-0.200;2023-06-24T06:52:25;102353.03;;;23.84;57.70
35910;BME280;22004;49.120;-0.200;2023-06-24T06:54:50;102352.91;;;24.28;57.53
35910;BME280;22004;49.120;-0.200;2023-06-24T06:57:15;102354.44;;;24.54;56.33
35910;BME280;22004;49.120;-0.200;2023-06-24T06:59:41;102359.66;;;25.09;55.85
35910;BME280;22004;49.120;-0.200;2023-06-24T07:02:06;102351.81;;;24.59;56.47
35910;BME280;22004;49.120;-0.200;2023-06-24T07:04:32;102351.44;;;24.25;56.52
35910;BME280;22004;49.120;-0.200;2023-06-24T07:06:57;102337.72;;;24.25;56.32
35910;BME280;22004;49.120;-0.200;2023-06-24T07:09:23;102331.41;;;23.58;57.35
35910;BME280;22004;49.120;-0.200;2023-06-24T07:11:48;102364.16;;;24.80;57.05
35910;BME280;22004;49.120;-0.200;2023-06-24T07:14:13;102344.16;;;24.19;56.32
35910;BME280;22004;49.120;-0.200;2023-06-24T07:16:39;102332.63;;;23.80;58.06
35910;BME280;22004;49.120;-0.200;2023-06-24T07:19:04;102339.03;;;23.37;61.38
35910;BME280;22004;49.120;-0.200;2023-06-24T07:21:29;102345.13;;;23.76;60.96
35910;BME280;22004;49.120;-0.200;2023-06-24T07:23:55;102337.19;;;23.86;58.13
35910;BME280;22004;49.120;-0.200;2023-06-24T07:26:20;102338.13;;;23.80;60.86
35910;BME280;22004;49.120;-0.200;2023-06-24T07:28:46;102346.44;;;24.52;58.82
35910;BME280;22004;49.120;-0.200;2023-06-24T07:31:11;102346.88;;;25.14;55.19
35910;BME280;22004;49.120;-0.200;2023-06-24T07:33:36;102339.47;;;25.15;54.49
35910;BME280;22004;49.120;-0.200;2023-06-24T07:36:02;102348.63;;;25.56;53.62
35910;BME280;22004;49.120;-0.200;2023-06-24T07:38:28;102350.78;;;25.53;56.38
35910;BME280;22004;49.120;-0.200;2023-06-24T07:40:54;102342.66;;;25.00;54.04
35910;BME280;22004;49.120;-0.200;2023-06-24T07:43:19;102347.44;;;24.93;54.89
35910;BME280;22004;49.120;-0.200;2023-06-24T07:45:45;102340.19;;;25.34;53.08
35910;BME280;22004;49.120;-0.200;2023-06-24T07:48:10;102341.81;;;25.82;52.13
35910;BME280;22004;49.120;-0.200;2023-06-24T07:50:35;102336.81;;;25.43;54.51
35910;BME280;22004;49.120;-0.200;2023-06-24T07:53:02;102339.19;;;26.03;53.73
35910;BME280;22004;49.120;-0.200;2023-06-24T07:55:27;102350.41;;;26.14;49.50
35910;BME280;22004;49.120;-0.200;2023-06-24T07:57:53;102341.47;;;26.07;51.77
35910;BME280;22004;49.120;-0.200;2023-06-24T08:00:18;102343.00;;;26.60;46.68
35910;BME280;22004;49.120;-0.200;2023-06-24T08:02:43;102341.94;;;26.77;49.82
35910;BME280;22004;49.120;-0.200;2023-06-24T08:05:09;102337.22;;;26.44;48.61
35910;BME280;22004;49.120;-0.200;2023-06-24T08:07:35;102332.97;;;26.08;49.40
35910;BME280;22004;49.120;-0.200;2023-06-24T08:10:01;102335.16;;;26.51;50.00
35910;BME280;22004;49.120;-0.200;2023-06-24T08:12:26;102333.59;;;26.72;48.18
35910;BME280;22004;49.120;-0.200;2023-06-24T08:14:52;102332.88;;;27.33;46.74
35910;BME280;22004;49.120;-0.200;2023-06-24T08:17:17;102324.41;;;26.21;45.85
35910;BME280;22004;49.120;-0.200;2023-06-24T08:19:42;102323.19;;;27.30;45.61
35910;BME280;22004;49.120;-0.200;2023-06-24T08:22:08;102314.19;;;26.05;44.97
35910;BME280;22004;49.120;-0.200;2023-06-24T08:24:33;102316.06;;;26.62;44.08
35910;BME280;22004;49.120;-0.200;2023-06-24T08:26:59;102319.56;;;26.28;45.60
35910;BME280;22004;49.120;-0.200;2023-06-24T08:29:24;102318.88;;;27.00;43.32
35910;BME280;22004;49.120;-0.200;2023-06-24T08:31:49;102315.63;;;27.20;43.91
35910;BME280;22004;49.120;-0.200;2023-06-24T08:34:15;102316.63;;;27.14;43.67
35910;BME280;22004;49.120;-0.200;2023-06-24T08:36:40;102306.34;;;26.93;43.64
35910;BME280;22004;49.120;-0.200;2023-06-24T08:39:05;102304.09;;;27.67;45.46
35910;BME280;22004;49.120;-0.200;2023-06-24T08:41:31;102299.00;;;27.76;46.32
35910;BME280;22004;49.120;-0.200;2023-06-24T08:43:56;102302.66;;;27.65;44.70
35910;BME280;22004;49.120;-0.200;2023-06-24T08:46:24;102306.53;;;28.35;43.64
35910;BME280;22004;49.120;-0.200;2023-06-24T08:48:58;102294.19;;;27.27;43.83
35910;BME280;22004;49.120;-0.200;2023-06-24T08:51:27;102294.84;;;27.35;44.38
35910;BME280;22004;49.120;-0.200;2023-06-24T08:53:55;102288.16;;;27.96;43.16
35910;BME280;22004;49.120;-0.200;2023-06-24T08:56:20;102295.63;;;28.50;43.23
35910;BME280;22004;49.120;-0.200;2023-06-24T08:58:46;102287.78;;;28.79;44.89
35910;BME280;22004;49.120;-0.200;2023-06-24T09:01:12;102266.69;;;27.76;43.76
35910;BME280;22004;49.120;-0.200;2023-06-24T09:03:37;102273.44;;;28.40;43.36
35910;BME280;22004;49.120;-0.200;2023-06-24T09:06:03;102277.78;;;28.08;43.78
35910;BME280;22004;49.120;-0.200;2023-06-24T09:08:28;102277.84;;;28.41;43.24
35910;BME280;22004;49.120;-0.200;2023-06-24T09:10:54;102276.53;;;28.21;45.42
35910;BME280;22004;49.120;-0.200;2023-06-24T09:13:20;102270.69;;;28.82;42.05
35910;BME280;22004;49.120;-0.200;2023-06-24T09:15:48;102264.81;;;27.82;43.64
35910;BME280;22004;49.120;-0.200;2023-06-24T09:18:13;102250.56;;;27.68;47.92
35910;BME280;22004;49.120;-0.200;2023-06-24T09:20:42;102258.88;;;27.46;44.44
35910;BME280;22004;49.120;-0.200;2023-06-24T09:23:10;102256.09;;;27.68;44.54
35910;BME280;22004;49.120;-0.200;2023-06-24T09:25:36;102267.00;;;28.66;44.67
35910;BME280;22004;49.120;-0.200;2023-06-24T09:28:02;102254.34;;;28.75;42.19
35910;BME280;22004;49.120;-0.200;2023-06-24T09:30:27;102257.66;;;28.35;44.46
35910;BME280;22004;49.120;-0.200;2023-06-24T09:32:54;102256.88;;;28.82;43.43
35910;BME280;22004;49.120;-0.200;2023-06-24T09:35:21;102253.50;;;28.70;42.30
35910;BME280;22004;49.120;-0.200;2023-06-24T09:37:56;102238.25;;;27.54;43.55
35910;BME280;22004;49.120;-0.200;2023-06-24T09:40:23;102243.53;;;26.95;44.56
35910;BME280;22004;49.120;-0.200;2023-06-24T09:42:52;102248.91;;;28.48;41.25
35910;BME280;22004;49.120;-0.200;2023-06-24T09:45:26;102237.72;;;28.65;43.37
35910;BME280;22004;49.120;-0.200;2023-06-24T09:47:53;102239.06;;;29.00;44.45
35910;BME280;22004;49.120;-0.200;2023-06-24T09:50:19;102232.13;;;28.28;42.72
35910;BME280;22004;49.120;-0.200;2023-06-24T09:52:44;102226.31;;;28.56;43.24
35910;BME280;22004;49.120;-0.200;2023-06-24T09:55:13;102229.78;;;28.84;43.67
35910;BME280;22004;49.120;-0.200;2023-06-24T09:57:39;102222.13;;;28.54;41.15
35910;BME280;22004;49.120;-0.200;2023-06-24T10:00:06;102212.66;;;27.58;43.25
35910;BME280;22004;49.120;-0.200;2023-06-24T10:02:33;102212.66;;;28.13;41.80
35910;BME280;22004;49.120;-0.200;2023-06-24T10:05:00;102203.97;;;27.99;41.20
35910;BME280;22004;49.120;-0.200;2023-06-24T10:07:26;102210.19;;;28.11;42.31
35910;BME280;22004;49.120;-0.200;2023-06-24T10:09:52;102208.75;;;27.54;43.40
35910;BME280;22004;49.120;-0.200;2023-06-24T10:12:18;102227.78;;;29.17;40.45
35910;BME280;22004;49.120;-0.200;2023-06-24T10:14:44;102209.56;;;29.26;41.74
35910;BME280;22004;49.120;-0.200;2023-06-24T10:17:11;102193.50;;;28.65;41.25
35910;BME280;22004;49.120;-0.200;2023-06-24T10:19:40;102190.19;;;28.31;42.90
35910;BME280;22004;49.120;-0.200;2023-06-24T10:22:10;102200.13;;;29.17;42.50
35910;BME280;22004;49.120;-0.200;2023-06-24T10:24:37;102190.06;;;28.16;40.97
35910;BME280;22004;49.120;-0.200;2023-06-24T10:27:05;102197.81;;;29.56;43.03
35910;BME280;22004;49.120;-0.200;2023-06-24T10:29:35;102192.38;;;29.19;41.49
35910;BME280;22004;49.120;-0.200;2023-06-24T10:32:05;102190.75;;;29.23;40.20
35910;BME280;22004;49.120;-0.200;2023-06-24T10:39:54;102165.97;;;28.85;39.08
35910;BME280;22004;49.120;-0.200;2023-06-24T10:44:53;102165.88;;;28.33;40.05
35910;BME280;22004;49.120;-0.200;2023-06-24T10:47:18;102173.13;;;28.81;39.83
35910;BME280;22004;49.120;-0.200;2023-06-24T10:49:45;102169.84;;;28.90;38.52
35910;BME280;22004;49.120;-0.200;2023-06-24T10:52:11;102165.25;;;28.21;37.90
35910;BME280;22004;49.120;-0.200;2023-06-24T10:54:40;102166.34;;;28.99;39.48
35910;BME280;22004;49.120;-0.200;2023-06-24T10:57:07;102168.06;;;29.21;39.77
35910;BME280;22004;49.120;-0.200;2023-06-24T10:59:39;102155.31;;;28.57;40.03
35910;BME280;22004;49.120;-0.200;2023-06-24T11:02:06;102152.91;;;28.71;38.80
35910;BME280;22004;49.120;-0.200;2023-06-24T11:04:32;102152.66;;;29.45;39.00
35910;BME280;22004;49.120;-0.200;2023-06-24T11:07:00;102151.50;;;29.36;40.67
35910;BME280;22004;49.120;-0.200;2023-06-24T11:09:26;102149.59;;;29.42;37.70
35910;BME280;22004;49.120;-0.200;2023-06-24T11:11:52;102147.03;;;29.15;38.73
35910;BME280;22004;49.120;-0.200;2023-06-24T11:14:17;102141.81;;;29.33;39.28
35910;BME280;22004;49.120;-0.200;2023-06-24T11:16:47;102137.63;;;28.58;38.68
35910;BME280;22004;49.120;-0.200;2023-06-24T11:19:13;102139.84;;;29.19;38.56
35910;BME280;22004;49.120;-0.200;2023-06-24T11:21:38;102142.88;;;29.17;39.27
35910;BME280;22004;49.120;-0.200;2023-06-24T11:24:06;102139.38;;;29.52;37.92
35910;BME280;22004;49.120;-0.200;2023-06-24T11:26:32;102135.19;;;29.29;37.45
35910;BME280;22004;49.120;-0.200;2023-06-24T11:28:58;102123.69;;;28.85;37.87
35910;BME280;22004;49.120;-0.200;2023-06-24T11:31:25;102136.38;;;29.64;41.67
35910;BME280;22004;49.120;-0.200;2023-06-24T11:33:50;102131.84;;;29.27;38.75
35910;BME280;22004;49.120;-0.200;2023-06-24T11:36:17;102119.69;;;29.44;40.60
35910;BME280;22004;49.120;-0.200;2023-06-24T11:38:45;102111.13;;;29.30;39.78
35910;BME280;22004;49.120;-0.200;2023-06-24T11:41:11;102115.03;;;28.71;39.57
35910;BME280;22004;49.120;-0.200;2023-06-24T11:43:36;102113.44;;;28.80;37.24
35910;BME280;22004;49.120;-0.200;2023-06-24T11:46:01;102110.88;;;28.74;40.77
35910;BME280;22004;49.120;-0.200;2023-06-24T11:48:30;102109.78;;;29.58;38.92
35910;BME280;22004;49.120;-0.200;2023-06-24T11:50:55;102102.41;;;28.91;37.43
35910;BME280;22004;49.120;-0.200;2023-06-24T11:53:30;102095.00;;;28.96;36.86
35910;BME280;22004;49.120;-0.200;2023-06-24T11:56:05;102093.75;;;29.65;38.21
35910;BME280;22004;49.120;-0.200;2023-06-24T11:58:34;102113.97;;;29.55;38.16
35910;BME280;22004;49.120;-0.200;2023-06-24T12:01:01;102087.75;;;28.85;38.21
35910;BME280;22004;49.120;-0.200;2023-06-24T12:03:28;102095.72;;;28.76;46.33
35910;BME280;22004;49.120;-0.200;2023-06-24T12:05:54;102080.59;;;28.37;46.74
35910;BME280;22004;49.120;-0.200;2023-06-24T12:08:19;102078.44;;;28.49;45.34
35910;BME280;22004;49.120;-0.200;2023-06-24T12:10:45;102079.22;;;28.39;46.93
35910;BME280;22004;49.120;-0.200;2023-06-24T12:13:10;102078.72;;;28.47;47.33
35910;BME280;22004;49.120;-0.200;2023-06-24T12:15:36;102064.34;;;28.03;46.66
35910;BME280;22004;49.120;-0.200;2023-06-24T12:18:02;102069.31;;;28.43;46.00
35910;BME280;22004;49.120;-0.200;2023-06-24T12:20:29;102071.16;;;28.85;49.27
35910;BME280;22004;49.120;-0.200;2023-06-24T12:22:55;102063.81;;;29.42;46.51
35910;BME280;22004;49.120;-0.200;2023-06-24T12:25:20;102058.81;;;28.40;48.60
35910;BME280;22004;49.120;-0.200;2023-06-24T12:27:46;102056.19;;;28.71;46.38
35910;BME280;22004;49.120;-0.200;2023-06-24T12:30:12;102047.50;;;28.04;45.59
35910;BME280;22004;49.120;-0.200;2023-06-24T12:32:39;102047.16;;;27.91;48.44
35910;BME280;22004;49.120;-0.200;2023-06-24T12:35:05;102044.56;;;27.79;48.15
35910;BME280;22004;49.120;-0.200;2023-06-24T12:37:33;102031.84;;;28.10;47.59
35910;BME280;22004;49.120;-0.200;2023-06-24T12:40:02;102025.63;;;27.55;48.90
35910;BME280;22004;49.120;-0.200;2023-06-24T12:42:28;102035.34;;;27.68;48.58
35910;BME280;22004;49.120;-0.200;2023-06-24T12:44:53;102027.91;;;28.01;49.26
35910;BME280;22004;49.120;-0.200;2023-06-24T12:47:19;102028.34;;;27.82;47.82
35910;BME280;22004;49.120;-0.200;2023-06-24T12:49:45;102022.84;;;27.88;49.28
35910;BME280;22004;49.120;-0.200;2023-06-24T12:52:12;102024.91;;;27.70;48.95